Crawfordsville, Arkansas
Current Conditions -  °F | °C
As of 1:53 PM on Thursday 30 Oct 2014 (Local Time) from KAWM Reporting Station
Clear Clear  
Wind Chill: 67°   Ceiling: Unl
Heat Index: 67°   Visibility: 10mi
Dew Point: 38°   Wind: 0mph
Humidity: 34%   Direction: NA
Pressure: 30.08"   Gusts: NA
Location:  35.23°N, 90.33°W
Report Text: KAWM 301853Z AUTO 00000KT 10SM CLR 19/03 A3008 RMK AO2 SLP184 T01940033
Loading
Personal Weather Stations






























Interactive Weather Map
Tropical Storm Tracking
New forecast layout! Learn more

10-Day Weather Forecast

Advertisements
Track Severe Weather on mobile